.
WxDataArchive / Data Records for 2007-10-31
2007-10-30 October 2007 2007-11-01

Data Records for Wednesday, 31 October 2007

Time	Temp	Chill	HIndex	Humid	Dewpt	 Wind 	HiWind	WindDir	Rain 	Barom 
-----	----	-----	------	-----	-----	------	------	-------	-----	----- 
00:00	50.1	50.1	50.1	66	39.2	0	2	248	0.00	30.127 
00:05	49.9	49.9	49.9	66	39.0	0	1	248	0.00	30.125 
00:10	49.8	49.8	49.8	67	39.3	0	2	248	0.00	30.122 
00:15	49.6	49.6	49.6	67	39.1	0	2	248	0.00	30.120 
00:20	49.5	49.5	49.5	67	39.0	0	2	248	0.00	30.116 
00:25	49.4	49.4	49.4	68	39.3	0	2	248	0.00	30.117 
00:30	49.2	49.2	49.2	68	39.1	0	1	248	0.00	30.116 
00:35	49.1	49.1	49.1	69	39.4	0	1	248	0.00	30.116 
00:40	48.9	48.9	48.9	69	39.2	0	1	248	0.00	30.116 
00:45	48.8	48.8	48.8	69	39.1	0	2	248	0.00	30.115 
00:50	48.6	48.6	48.6	70	39.3	0	1	248	0.00	30.111 
00:55	48.5	48.5	48.5	70	39.2	0	1	248	0.00	30.112 
01:00	48.3	48.3	48.3	70	39.0	0	3	248	0.00	30.111 
01:05	48.3	48.3	48.3	70	39.0	0	1	248	0.00	30.113 
01:10	48.2	48.2	48.2	71	39.2	0	3	248	0.00	30.113 
01:15	48.3	48.3	48.3	70	39.0	0	3	248	0.00	30.111 
01:20	48.3	48.3	48.3	70	39.0	0	3	248	0.00	30.111 
01:25	48.3	48.3	48.3	70	39.0	0	3	270	0.00	30.106 
01:30	48.3	48.3	48.3	71	39.3	0	2	270	0.00	30.107 
01:35	48.3	48.3	48.3	71	39.3	0	2	248	0.00	30.109 
01:40	48.5	48.5	48.5	70	39.2	1	4	248	0.00	30.105 
01:45	48.6	48.6	48.6	70	39.3	1	2	248	0.00	30.106 
01:50	48.6	48.6	48.6	69	38.9	1	4	248	0.00	30.105 
01:55	48.3	48.3	48.3	70	39.0	0	2	248	0.00	30.103 
02:00	48.2	48.2	48.2	70	38.9	0	3	248	0.00	30.101 
02:05	48.0	48.0	48.0	71	39.1	0	2	248	0.00	30.097 
02:10	47.7	47.7	47.7	71	38.8	0	0	---	0.00	30.096 
02:15	47.4	47.4	47.4	72	38.8	0	1	248	0.00	30.094 
02:20	47.3	47.3	47.3	73	39.1	0	1	248	0.00	30.096 
02:25	47.3	47.3	47.3	73	39.1	0	2	248	0.00	30.098 
02:30	47.3	47.3	47.3	73	39.1	0	1	248	0.00	30.099 
02:35	47.4	47.4	47.4	72	38.8	0	2	248	0.00	30.101 
02:40	47.4	47.4	47.4	72	38.8	0	2	248	0.00	30.099 
02:45	47.4	47.4	47.4	72	38.8	0	2	248	0.00	30.099 
02:50	47.4	47.4	47.4	72	38.8	0	1	248	0.00	30.100 
02:55	47.4	47.4	47.4	72	38.8	0	3	248	0.00	30.098 
03:00	47.4	47.4	47.4	72	38.8	0	2	248	0.00	30.098 
03:05	47.4	47.4	47.4	72	38.8	0	4	248	0.00	30.098 
03:10	47.3	47.3	47.3	72	38.7	0	1	248	0.00	30.095 
03:15	47.0	47.0	47.0	72	38.4	0	0	---	0.00	30.090 
03:20	46.7	46.7	46.7	73	38.5	0	1	248	0.00	30.087 
03:25	46.4	46.4	46.4	73	38.2	0	0	---	0.00	30.085 
03:30	46.0	46.0	46.0	74	38.2	0	0	---	0.00	30.085 
03:35	45.7	45.7	45.7	75	38.2	0	1	248	0.00	30.084 
03:40	45.4	45.4	45.4	76	38.3	0	1	248	0.00	30.084 
03:45	45.1	45.1	45.1	76	38.0	0	0	---	0.00	30.084 
03:50	45.1	45.1	45.1	77	38.3	0	0	---	0.00	30.085 
03:55	44.9	44.9	44.9	77	38.1	0	1	248	0.00	30.086 
04:00	44.8	44.8	44.8	77	38.0	0	0	---	0.00	30.087 
04:05	44.6	44.6	44.6	78	38.2	0	0	---	0.00	30.087 
04:10	44.3	44.3	44.3	78	37.9	0	0	---	0.00	30.087 
04:15	44.2	44.2	44.2	78	37.8	0	0	---	0.00	30.085 
04:20	44.1	44.1	44.1	79	38.0	0	1	248	0.00	30.085 
04:25	43.9	43.9	43.9	79	37.8	0	1	248	0.00	30.084 
04:30	43.9	43.9	43.9	80	38.1	0	1	248	0.00	30.083 
04:35	43.9	43.9	43.9	80	38.1	0	1	248	0.00	30.081 
04:40	43.9	43.9	43.9	80	38.1	0	0	---	0.00	30.078 
04:45	43.9	43.9	43.9	80	38.1	0	1	248	0.00	30.077 
04:50	43.9	43.9	43.9	80	38.1	0	1	248	0.00	30.076 
04:55	44.1	44.1	44.1	81	38.6	0	1	248	0.00	30.073 
05:00	44.1	44.1	44.1	80	38.3	0	1	248	0.00	30.071 
05:05	44.2	44.2	44.2	80	38.4	0	1	248	0.00	30.078 
05:10	44.2	44.2	44.2	80	38.4	0	1	248	0.00	30.078 
05:15	44.5	44.5	44.5	80	38.7	0	1	248	0.00	30.076 
05:20	44.6	44.6	44.6	79	38.5	0	2	248	0.00	30.079 
05:25	44.8	44.8	44.8	79	38.7	0	1	248	0.00	30.079 
05:30	44.8	44.8	44.8	79	38.7	0	3	248	0.00	30.080 
05:35	44.8	44.8	44.8	78	38.4	0	1	248	0.00	30.076 
05:40	44.6	44.6	44.6	79	38.5	0	1	248	0.00	30.076 
05:45	44.5	44.5	44.5	79	38.4	0	1	202	0.00	30.075 
05:50	44.2	44.2	44.2	79	38.1	0	0	---	0.00	30.076 
05:55	44.1	44.1	44.1	80	38.3	0	1	202	0.00	30.077 
06:00	43.9	43.9	43.9	80	38.1	0	0	---	0.00	30.076 
06:05	43.9	43.9	43.9	80	38.1	0	1	202	0.00	30.080 
06:10	43.8	43.8	43.8	81	38.4	0	1	202	0.00	30.077 
06:15	43.6	43.6	43.6	81	38.2	0	1	202	0.00	30.077 
06:20	43.5	43.5	43.5	81	38.1	0	1	202	0.00	30.073 
06:25	43.5	43.5	43.5	81	38.1	0	1	202	0.00	30.072 
06:30	43.3	43.3	43.3	81	37.9	0	0	---	0.00	30.070 
06:35	43.2	43.2	43.2	82	38.1	0	1	202	0.00	30.067 
06:40	43.1	43.1	43.1	82	38.0	0	1	180	0.00	30.066 
06:45	42.9	42.9	42.9	82	37.8	0	0	---	0.00	30.065 
06:50	42.8	42.8	42.8	83	38.0	0	1	180	0.00	30.065 
06:55	42.8	42.8	42.8	83	38.0	0	0	---	0.00	30.068 
07:00	42.6	42.6	42.6	83	37.8	0	1	180	0.00	30.066 
07:05	42.6	42.6	42.6	83	37.8	0	1	180	0.00	30.068 
07:10	42.6	42.6	42.6	84	38.1	0	1	112	0.00	30.069 
07:15	42.9	42.9	42.9	84	38.4	0	2	180	0.00	30.069 
07:20	43.1	43.1	43.1	83	38.3	0	2	202	0.00	30.073 
07:25	43.6	43.6	43.6	82	38.5	0	3	248	0.00	30.071 
07:30	43.9	43.9	43.9	82	38.8	0	3	248	0.00	30.070 
07:35	44.2	44.2	44.2	81	38.7	0	2	248	0.00	30.072 
07:40	44.3	44.3	44.3	81	38.8	0	1	225	0.00	30.071 
07:45	44.6	44.6	44.6	81	39.1	0	1	225	0.00	30.069 
07:50	44.9	44.9	44.9	80	39.1	0	2	68	0.00	30.067 
07:55	45.2	45.2	45.2	80	39.4	0	3	68	0.00	30.059 
08:00	46.0	46.0	46.0	78	39.5	1	5	248	0.00	30.056 
08:05	46.7	46.7	46.7	76	39.5	1	6	248	0.00	30.056 
08:10	47.3	47.3	47.3	75	39.8	1	3	292	0.00	30.052 
08:15	47.7	47.7	47.7	74	39.8	1	6	248	0.00	30.054 
08:20	48.0	48.0	48.0	71	39.1	2	6	248	0.00	30.060 
08:25	47.9	47.9	47.9	71	39.0	2	6	248	0.00	30.061 
08:30	47.7	47.7	47.7	72	39.1	2	6	248	0.00	30.056 
08:35	47.7	47.7	47.7	72	39.1	1	6	248	0.00	30.054 
08:40	48.0	48.0	48.0	72	39.4	1	5	225	0.00	30.053 
08:45	48.3	48.3	48.3	71	39.3	2	5	248	0.00	30.053 
08:50	49.1	49.1	49.1	70	39.7	2	6	248	0.00	30.048 
08:55	49.6	49.6	49.6	70	40.2	2	7	270	0.00	30.046 
09:00	50.1	50.1	50.1	68	40.0	1	6	248	0.00	30.035 
09:05	49.8	49.8	49.8	68	39.7	2	9	270	0.00	30.030 
09:10	49.4	49.4	49.4	70	40.0	1	5	248	0.00	30.031 
09:15	49.4	49.4	49.4	70	40.0	2	5	248	0.00	30.031 
09:20	49.9	49.9	49.9	69	40.1	2	5	248	0.00	30.031 
09:25	50.4	50.4	50.4	68	40.2	2	7	225	0.00	30.030 
09:30	51.1	51.1	51.1	66	40.1	2	7	270	0.00	30.031 
09:35	51.4	51.4	51.4	65	40.0	2	5	248	0.00	30.022 
09:40	51.6	51.6	51.6	65	40.2	3	7	248	0.00	30.016 
09:45	51.9	51.9	51.9	64	40.1	3	7	248	0.00	30.017 
09:50	52.5	52.5	52.5	64	40.7	3	13	248	0.00	30.015 
09:55	53.1	53.1	53.1	63	40.8	3	7	270	0.00	30.014 
10:00	53.5	53.5	53.5	62	40.8	4	10	248	0.00	30.014 
10:05	53.9	53.9	53.9	62	41.2	3	9	248	0.00	30.011 
10:10	54.5	54.5	54.5	61	41.3	4	9	248	0.00	30.011 
10:15	55.1	55.1	55.1	60	41.5	3	7	248	0.00	30.008 
10:20	55.7	55.7	55.7	59	41.6	4	15	270	0.00	30.008 
10:25	56.3	56.3	56.3	58	41.7	3	15	270	0.00	30.008 
10:30	57.0	57.0	57.0	56	41.5	3	7	270	0.00	30.007 
10:35	57.5	57.5	57.5	56	41.9	4	10	248	0.00	30.005 
10:40	58.1	58.1	58.1	54	41.5	3	9	270	0.00	30.004 
10:45	58.6	58.6	58.6	54	42.0	4	9	270	0.00	29.996 
10:50	58.7	58.7	58.7	53	41.6	4	10	270	0.00	29.989 
10:55	58.0	58.0	58.0	54	41.4	4	11	248	0.00	29.987 
11:00	57.8	57.8	57.8	55	41.7	4	9	248	0.00	29.986 
11:05	58.1	58.1	58.1	56	42.5	3	10	248	0.00	29.979 
11:10	59.0	59.0	59.0	54	42.4	3	10	248	0.00	29.978 
11:15	59.5	59.5	59.5	53	42.4	4	11	270	0.00	29.974 
11:20	59.9	59.9	59.9	54	43.2	3	7	248	0.00	29.970 
11:25	59.9	59.9	59.9	54	43.2	2	5	292	0.00	29.960 
11:30	59.9	59.9	59.9	54	43.2	3	11	248	0.00	29.955 
11:35	59.9	59.9	59.9	55	43.7	3	9	270	0.00	29.955 
11:40	60.2	60.2	60.2	53	43.0	4	12	248	0.00	29.953 
11:45	60.4	60.4	60.4	54	43.7	3	11	248	0.00	29.952 
11:50	60.4	60.4	60.4	53	43.2	4	11	248	0.00	29.951 
11:55	60.2	60.2	60.2	54	43.5	4	10	248	0.00	29.948 
12:00	60.5	60.5	60.5	54	43.8	4	10	248	0.00	29.946 
12:05	61.2	61.2	61.2	55	44.9	3	7	270	0.00	29.943 
12:10	62.1	62.1	62.1	53	44.8	3	10	248	0.00	29.941 
12:15	62.0	62.0	62.0	52	44.2	4	13	248	0.00	29.935 
12:20	62.3	62.3	62.3	53	44.9	4	11	270	0.00	29.932 
12:25	62.4	62.4	62.4	51	44.0	4	12	248	0.00	29.934 
12:30	62.0	62.0	62.0	52	44.2	4	9	248	0.00	29.942 
12:35	61.5	61.5	61.5	53	44.2	4	10	225	0.00	29.941 
12:40	61.5	61.5	61.5	54	44.7	4	12	248	0.00	29.943 
12:45	61.6	61.6	61.6	54	44.8	4	10	248	0.00	29.944 
12:50	61.5	61.5	61.5	53	44.2	4	11	248	0.00	29.940 
12:55	61.5	61.5	61.5	54	44.7	3	12	248	0.00	29.940 
13:00	61.5	61.5	61.5	54	44.7	3	7	248	0.00	29.932 
13:05	61.8	61.8	61.8	54	45.0	4	14	248	0.00	29.930 
13:10	62.0	62.0	62.0	54	45.2	3	7	248	0.00	29.929 
13:15	62.1	62.1	62.1	54	45.3	4	15	248	0.00	29.928 
13:20	62.6	62.6	62.6	53	45.2	3	9	248	0.00	29.929 
13:25	63.1	63.1	63.1	53	45.7	3	9	248	0.00	29.926 
13:30	63.5	63.5	63.5	52	45.6	4	12	248	0.00	29.926 
13:35	63.7	63.7	63.7	51	45.2	4	15	248	0.00	29.923 
13:40	63.2	63.2	63.2	51	44.8	5	11	248	0.00	29.924 
13:45	63.4	63.4	63.4	51	45.0	4	12	248	0.00	29.923 
13:50	63.4	63.4	63.4	51	45.0	4	11	248	0.00	29.921 
13:55	63.5	63.5	63.5	51	45.0	5	10	248	0.00	29.914 
14:00	64.2	64.2	64.2	52	46.2	3	7	248	0.00	29.906 
14:05	65.0	65.0	65.0	51	46.4	3	7	248	0.00	29.906 
14:10	65.0	65.0	65.0	49	45.4	5	13	270	0.00	29.904 
14:15	64.7	64.7	64.7	50	45.6	5	12	248	0.00	29.897 
14:20	64.5	64.5	64.5	50	45.4	4	13	270	0.00	29.894 
14:25	64.5	64.5	64.5	50	45.4	4	11	248	0.00	29.899 
14:30	64.3	64.3	64.3	50	45.3	5	11	270	0.00	29.896 
14:35	64.2	64.2	64.2	50	45.2	5	14	248	0.00	29.898 
14:40	64.5	64.5	64.5	51	46.0	3	10	248	0.00	29.896 
14:45	64.7	64.7	64.7	51	46.1	3	7	248	0.00	29.891 
14:50	64.7	64.7	64.7	50	45.6	4	10	270	0.00	29.891 
14:55	64.7	64.7	64.7	50	45.6	4	15	270	0.00	29.891 
15:00	64.7	64.7	64.7	51	46.1	3	8	270	0.00	29.892 
15:05	65.0	65.0	65.0	50	45.9	3	10	248	0.00	29.892 
15:10	65.0	65.0	65.0	50	45.9	5	13	270	0.00	29.892 
15:15	64.5	64.5	64.5	50	45.4	4	12	248	0.00	29.892 
15:20	64.3	64.3	64.3	52	46.3	3	9	248	0.00	29.896 
15:25	64.3	64.3	64.3	52	46.3	3	9	248	0.00	29.901 
15:30	64.3	64.3	64.3	52	46.3	3	7	248	0.00	29.900 
15:35	64.5	64.5	64.5	51	46.0	5	12	248	0.00	29.896 
15:40	64.7	64.7	64.7	52	46.7	3	7	248	0.00	29.895 
15:45	64.7	64.7	64.7	52	46.7	2	6	248	0.00	29.895 
15:50	64.7	64.7	64.7	53	47.2	4	11	248	0.00	29.897 
15:55	64.3	64.3	64.3	54	47.3	2	7	248	0.00	29.901 
16:00	64.2	64.2	64.2	54	47.2	3	9	248	0.00	29.902 
16:05	64.2	64.2	64.2	54	47.2	3	10	248	0.00	29.903 
16:10	64.2	64.2	64.2	55	47.7	2	9	248	0.00	29.905 
16:15	64.0	64.0	64.0	55	47.5	2	4	248	0.00	29.903 
16:20	63.9	63.9	63.9	56	47.9	2	5	248	0.00	29.906 
16:25	63.9	63.9	63.9	56	47.9	3	10	248	0.00	29.904 
16:30	63.9	63.9	63.9	56	47.9	3	9	248	0.00	29.905 
16:35	63.9	63.9	63.9	56	47.9	2	5	248	0.00	29.906 
16:40	63.9	63.9	63.9	56	47.9	3	9	248	0.00	29.907 
16:45	63.7	63.7	63.7	56	47.7	2	6	248	0.00	29.909 
16:50	63.7	63.7	63.7	56	47.7	4	10	248	0.00	29.909 
16:55	63.5	63.5	63.5	56	47.5	3	6	248	0.00	29.910 
17:00	63.5	63.5	63.5	56	47.5	4	11	248	0.00	29.910 
17:05	63.5	63.5	63.5	56	47.5	4	13	248	0.00	29.910 
17:10	63.4	63.4	63.4	57	47.9	2	7	248	0.00	29.910 
17:15	63.2	63.2	63.2	57	47.7	2	5	248	0.00	29.913 
17:20	63.2	63.2	63.2	57	47.7	3	6	248	0.00	29.913 
17:25	63.1	63.1	63.1	58	48.1	2	5	248	0.00	29.914 
17:30	63.1	63.1	63.1	58	48.1	2	6	248	0.00	29.917 
17:35	62.9	62.9	62.9	58	47.9	3	6	270	0.00	29.914 
17:40	62.9	62.9	62.9	58	47.9	3	8	270	0.00	29.913 
17:45	62.9	62.9	62.9	58	47.9	3	9	270	0.00	29.913 
17:50	62.9	62.9	62.9	58	47.9	3	10	248	0.00	29.915 
17:55	62.7	62.7	62.7	59	48.2	2	6	248	0.00	29.921 
18:00	62.6	62.6	62.6	59	48.1	2	4	248	0.00	29.924 
18:05	62.3	62.3	62.3	59	47.8	3	6	248	0.00	29.929 
18:10	61.6	61.6	61.6	60	47.6	3	5	248	0.00	29.928 
18:15	61.3	61.3	61.3	61	47.7	2	6	248	0.00	29.929 
18:20	60.9	60.9	60.9	62	47.8	2	6	225	0.00	29.931 
18:25	60.9	60.9	60.9	62	47.8	4	8	248	0.00	29.934 
18:30	60.7	60.7	60.7	62	47.6	4	12	248	0.00	29.937 
18:35	60.5	60.5	60.5	63	47.8	3	7	248	0.00	29.936 
18:40	60.5	60.5	60.5	63	47.8	3	8	248	0.00	29.936 
18:45	60.4	60.4	60.4	63	47.7	3	7	248	0.00	29.934 
18:50	60.5	60.5	60.5	64	48.3	4	9	270	0.00	29.935 
18:55	60.5	60.5	60.5	64	48.3	4	10	270	0.00	29.934 
19:00	60.4	60.4	60.4	65	48.6	3	7	270	0.00	29.946 
19:05	60.2	60.2	60.2	65	48.4	4	12	270	0.00	29.943 
19:10	59.9	59.9	59.9	66	48.5	4	7	270	0.00	29.945 
19:15	59.8	59.8	59.8	66	48.4	4	9	270	0.00	29.946 
19:20	59.5	59.5	59.5	69	49.3	5	10	270	0.00	29.951 
19:25	58.6	58.6	58.6	73	50.0	3	7	270	0.00	29.959 
19:30	57.5	57.5	57.5	78	50.7	4	9	270	0.00	29.962 
19:35	56.7	56.7	56.7	82	51.3	2	4	248	0.00	29.966 
19:40	55.9	55.9	55.9	84	51.1	3	5	248	0.00	29.967 
19:45	55.4	55.4	55.4	87	51.6	3	6	270	0.00	29.973 
19:50	55.0	55.0	55.0	88	51.5	2	5	270	0.00	29.973 
19:55	54.8	54.8	54.8	88	51.3	1	6	270	0.00	29.968 
20:00	54.7	54.7	54.7	88	51.2	1	4	248	0.00	29.965 
20:05	54.5	54.5	54.5	88	51.0	1	5	248	0.00	29.962 
20:10	54.5	54.5	54.5	87	50.7	1	4	248	0.00	29.960 
20:15	54.5	54.5	54.5	87	50.7	1	4	248	0.00	29.961 
20:20	54.7	54.7	54.7	86	50.6	1	4	248	0.00	29.962 
20:25	54.7	54.7	54.7	85	50.3	1	5	248	0.00	29.962 
20:30	54.8	54.8	54.8	84	50.1	2	5	248	0.00	29.963 
20:35	55.0	55.0	55.0	83	49.9	2	5	248	0.00	29.965 
20:40	55.1	55.1	55.1	83	50.0	1	3	248	0.00	29.967 
20:45	55.1	55.1	55.1	82	49.7	1	5	248	0.00	29.970 
20:50	55.1	55.1	55.1	81	49.4	2	7	248	0.00	29.971 
20:55	55.3	55.3	55.3	81	49.6	1	5	248	0.00	29.970 
21:00	55.3	55.3	55.3	81	49.6	1	4	248	0.00	29.972 
21:05	55.3	55.3	55.3	81	49.6	1	4	248	0.00	29.970 
21:10	55.3	55.3	55.3	81	49.6	1	7	248	0.00	29.971 
21:15	55.3	55.3	55.3	81	49.6	1	4	248	0.00	29.972 
21:20	55.3	55.3	55.3	81	49.6	2	7	248	0.00	29.973 
21:25	55.3	55.3	55.3	80	49.2	3	4	248	0.00	29.982 
21:30	55.3	55.3	55.3	78	48.6	2	4	248	0.00	29.986 
21:35	55.1	55.1	55.1	75	47.3	2	7	248	0.00	29.988 
21:40	55.1	55.1	55.1	70	45.5	2	6	315	0.00	29.991 
21:45	54.8	54.8	54.8	65	43.3	2	5	315	0.00	29.994 
21:50	54.4	54.4	54.4	60	40.8	1	4	315	0.00	29.999 
21:55	53.9	53.9	53.9	57	39.0	1	4	315	0.00	30.001 
22:00	53.6	53.6	53.6	56	38.3	1	3	270	0.00	30.004 
22:05	53.5	53.5	53.5	56	38.2	1	3	315	0.00	30.002 
22:10	53.3	53.3	53.3	56	38.0	1	4	0	0.00	30.005 
22:15	53.3	53.3	53.3	55	37.5	1	4	315	0.00	30.007 
22:20	53.3	53.3	53.3	54	37.1	1	4	292	0.00	30.008 
22:25	53.3	53.3	53.3	52	36.1	1	5	315	0.00	30.010 
22:30	53.2	53.2	53.2	53	36.5	1	3	292	0.00	30.010 
22:35	52.9	52.9	52.9	51	35.3	1	4	315	0.00	30.014 
22:40	52.9	52.9	52.9	51	35.3	1	3	292	0.00	30.017 
22:45	52.8	52.8	52.8	51	35.2	1	3	292	0.00	30.019 
22:50	52.6	52.6	52.6	51	35.0	1	4	338	0.00	30.020 
22:55	52.6	52.6	52.6	50	34.5	2	6	315	0.00	30.021 
23:00	52.3	52.3	52.3	51	34.7	0	2	315	0.00	30.023 
23:05	52.0	52.0	52.0	51	34.4	0	2	292	0.00	30.022 
23:10	51.7	51.7	51.7	52	34.6	1	2	292	0.00	30.024 
23:15	51.4	51.4	51.4	52	34.4	1	3	315	0.00	30.027 
23:20	51.1	51.1	51.1	52	34.1	1	3	292	0.00	30.028 
23:25	51.0	51.0	51.0	52	34.0	1	3	292	0.00	30.030 
23:30	50.7	50.7	50.7	53	34.2	0	2	270	0.00	30.030 
23:35	50.2	50.2	50.2	52	33.3	0	2	292	0.00	30.034 
23:40	50.2	50.2	50.2	53	33.7	1	2	292	0.00	30.035 
23:45	49.9	49.9	49.9	53	33.5	0	1	292	0.00	30.035 
23:50	49.6	49.6	49.6	54	33.6	0	2	292	0.00	30.035 
23:55	49.4	49.4	49.4	54	33.5	0	2	292	0.00	30.035 

CoCoRaHS
IN-AL-39
A2 Web Hosting
Creative Commons License
GoDaddy
Look for:

loaded 2017-10-16 20:19:46 • last modified 2010-11-18 10:43:29
Privacy PolicyDisclaimer
• wx.awcolley.com is powered by PmWiki v.2002016 •
• all content (unless otherwise noted) © 2017 A W Colley